createdAt,value
2023-04-03T00:00:30.650Z,95549.22
2023-04-03T00:01:35.184Z,95552.06
2023-04-03T00:02:36.969Z,95547.59
2023-04-03T00:03:38.718Z,95539.72
2023-04-03T00:04:43.216Z,95539.19
2023-04-03T00:05:44.945Z,95547.84
2023-04-03T00:06:46.709Z,95540.59
2023-04-03T00:07:48.528Z,95537.53
2023-04-03T00:08:50.496Z,95548.03
2023-04-03T00:09:52.138Z,95538.34
2023-04-03T00:10:56.109Z,95545.84
2023-04-03T00:11:57.753Z,95539.56
2023-04-03T00:12:59.435Z,95539.94
2023-04-03T00:14:01.105Z,95545.03
2023-04-03T00:15:05.379Z,95539.19
2023-04-03T00:16:08.709Z,95542.00
2023-04-03T00:17:10.399Z,95545.03
2023-04-03T00:18:11.993Z,95539.81
2023-04-03T00:19:14.035Z,95540.78
2023-04-03T00:20:15.786Z,95546.47
2023-04-03T00:21:17.559Z,95545.06
2023-04-03T00:22:19.199Z,95545.03
2023-04-03T00:23:20.797Z,95545.25
2023-04-03T00:24:22.453Z,95538.44
2023-04-03T00:25:26.859Z,95554.03
2023-04-03T00:26:30.666Z,95542.50
2023-04-03T00:27:32.193Z,95545.38
2023-04-03T00:28:34.001Z,95546.31
2023-04-03T00:29:35.836Z,95540.56
2023-04-03T00:30:38.280Z,95536.63
2023-04-03T00:31:41.761Z,95539.97
2023-04-03T00:32:46.596Z,95541.00
2023-04-03T00:33:48.543Z,95537.41
2023-04-03T00:34:55.563Z,95537.41
2023-04-03T00:35:57.314Z,95539.19
2023-04-03T00:36:59.102Z,95533.81
2023-04-03T00:38:01.252Z,95538.41
2023-04-03T00:39:03.094Z,95538.19
2023-04-03T00:40:05.597Z,95531.13
2023-04-03T00:41:07.763Z,95528.09
2023-04-03T00:42:09.603Z,95530.13
2023-04-03T00:43:15.670Z,95527.13
2023-04-03T00:44:22.607Z,95530.53
2023-04-03T00:45:31.687Z,95526.09
2023-04-03T00:46:33.382Z,95526.09
2023-04-03T00:47:37.535Z,95526.97
2023-04-03T00:48:45.890Z,95515.22
2023-04-03T00:49:48.005Z,95515.59
2023-04-03T00:50:52.488Z,95515.66
2023-04-03T00:51:55.013Z,95520.03
2023-04-03T00:52:57.612Z,95515.59
2023-04-03T00:54:05.324Z,95520.63
2023-04-03T00:55:11.014Z,95520.63
2023-04-03T00:56:15.581Z,95517.00
2023-04-03T00:57:18.776Z,95520.41
2023-04-03T00:58:23.694Z,95523.03
2023-04-03T00:59:31.294Z,95519.22
2023-04-03T01:00:33.220Z,95515.22
2023-04-03T01:01:36.230Z,95517.25
2023-04-03T01:02:38.327Z,95512.00
2023-04-03T01:03:40.970Z,95517.66
2023-04-03T01:04:44.471Z,95511.63
2023-04-03T01:05:46.408Z,95522.53
2023-04-03T01:06:50.380Z,95517.31
2023-04-03T01:07:53.801Z,95510.88
2023-04-03T01:08:56.638Z,95521.34
2023-04-03T01:10:02.031Z,95516.69
2023-04-03T01:11:03.768Z,95520.72
2023-04-03T01:12:21.482Z,95515.72
2023-04-03T01:13:26.808Z,95524.75
2023-04-03T01:14:28.758Z,95517.72
2023-04-03T01:15:35.829Z,95509.28
2023-04-03T01:16:37.579Z,95513.47
2023-04-03T01:17:39.153Z,95512.06
2023-04-03T01:18:41.790Z,95517.09
2023-04-03T01:19:53.641Z,95512.47
2023-04-03T01:21:25.576Z,95509.84
2023-04-03T01:22:36.461Z,95508.84
2023-04-03T01:23:53.209Z,95512.25
2023-04-03T01:24:57.426Z,95510.81
2023-04-03T01:25:59.390Z,95506.81
2023-04-03T01:27:06.727Z,95507.00
2023-04-03T01:28:17.196Z,95502.56
2023-04-03T01:29:19.077Z,95506.00
2023-04-03T01:30:22.168Z,95511.66
2023-04-03T01:31:28.589Z,95507.81
2023-04-03T01:32:31.479Z,95511.63
2023-04-03T01:33:33.588Z,95513.69
2023-04-03T01:34:35.470Z,95517.47
2023-04-03T01:35:37.131Z,95514.03
2023-04-03T01:36:38.813Z,95512.06
2023-04-03T01:37:40.715Z,95512.41
2023-04-03T01:38:42.417Z,95514.63
2023-04-03T01:39:46.612Z,95508.78
2023-04-03T01:40:48.468Z,95510.38
2023-04-03T01:41:51.094Z,95513.00
2023-04-03T01:43:04.418Z,95513.19
2023-04-03T01:44:08.364Z,95509.56
2023-04-03T01:45:10.885Z,95507.97
2023-04-03T01:46:12.623Z,95510.38
2023-04-03T01:47:14.303Z,95519.69
2023-04-03T01:48:17.637Z,95516.41
2023-04-03T01:49:19.290Z,95514.38
2023-04-03T01:50:21.156Z,95514.03
2023-04-03T01:51:23.412Z,95511.94
2023-04-03T01:52:25.407Z,95506.50
2023-04-03T01:53:27.259Z,95513.38
2023-04-03T01:54:29.040Z,95509.38
2023-04-03T01:55:30.710Z,95506.22
2023-04-03T01:56:32.592Z,95508.19
2023-04-03T01:57:34.184Z,95516.28
2023-04-03T01:58:35.963Z,95511.41
2023-04-03T01:59:37.692Z,95505.50
2023-04-03T02:00:39.403Z,95513.25
2023-04-03T02:01:41.384Z,95512.16
2023-04-03T02:02:43.314Z,95510.94
2023-04-03T02:03:47.305Z,95511.34
2023-04-03T02:04:48.991Z,95513.38
2023-04-03T02:05:53.267Z,95514.75
2023-04-03T02:06:54.954Z,95511.69
2023-04-03T02:07:57.389Z,95523.63
2023-04-03T02:09:02.121Z,95509.06
2023-04-03T02:10:06.008Z,95511.25
2023-04-03T02:11:07.727Z,95514.91
2023-04-03T02:12:09.231Z,95517.59
2023-04-03T02:13:11.197Z,95513.88
2023-04-03T02:14:13.407Z,95519.72
2023-04-03T02:15:15.325Z,95509.22
2023-04-03T02:16:17.359Z,95511.66
2023-04-03T02:17:19.053Z,95512.84
2023-04-03T02:18:21.022Z,95510.00
2023-04-03T02:19:27.379Z,95512.19
2023-04-03T02:20:29.259Z,95511.19
2023-04-03T02:21:34.031Z,95508.78
2023-04-03T02:22:35.718Z,95507.53
2023-04-03T02:23:37.951Z,95513.69
2023-04-03T02:24:41.376Z,95516.66
2023-04-03T02:25:43.176Z,95513.22
2023-04-03T02:26:44.928Z,95510.66
2023-04-03T02:27:46.782Z,95515.47
2023-04-03T02:28:48.724Z,95513.88
2023-04-03T02:29:50.531Z,95514.47
2023-04-03T02:30:52.830Z,95506.16
2023-04-03T02:31:54.564Z,95509.47
2023-04-03T02:32:57.532Z,95508.19
2023-04-03T02:34:00.598Z,95508.63
2023-04-03T02:35:02.661Z,95508.81
2023-04-03T02:36:05.812Z,95513.53
2023-04-03T02:37:07.667Z,95508.63
2023-04-03T02:38:09.410Z,95510.09
2023-04-03T02:39:11.227Z,95505.41
2023-04-03T02:40:12.977Z,95510.47
2023-04-03T02:41:14.924Z,95506.69
2023-04-03T02:42:19.096Z,95509.91
2023-04-03T02:43:20.940Z,95501.84
2023-04-03T02:44:24.496Z,95505.84
2023-04-03T02:45:27.488Z,95508.72
2023-04-03T02:46:29.592Z,95508.28
2023-04-03T02:47:34.485Z,95504.47
2023-04-03T02:48:37.749Z,95507.72
2023-04-03T02:49:39.807Z,95505.09
2023-04-03T02:50:41.465Z,95502.88
2023-04-03T02:51:43.178Z,95497.09
2023-04-03T02:52:45.476Z,95501.47
2023-04-03T02:53:47.310Z,95498.63
2023-04-03T02:54:54.516Z,95503.28
2023-04-03T02:55:56.344Z,95501.91
2023-04-03T02:56:58.980Z,95497.81
2023-04-03T02:58:00.773Z,95498.00
2023-04-03T02:59:02.640Z,95496.84
2023-04-03T03:00:05.180Z,95498.59
2023-04-03T03:01:07.044Z,95502.19
2023-04-03T03:02:12.021Z,95505.66
2023-04-03T03:03:15.121Z,95498.78
2023-04-03T03:04:17.029Z,95500.41
2023-04-03T03:05:18.948Z,95501.59
2023-04-03T03:06:20.923Z,95502.19
2023-04-03T03:07:22.469Z,95504.31
2023-04-03T03:08:24.087Z,95518.38
2023-04-03T03:09:28.415Z,95514.72
2023-04-03T03:10:30.411Z,95508.28
2023-04-03T03:11:32.564Z,95510.25
2023-04-03T03:12:34.228Z,95507.44
2023-04-03T03:13:39.213Z,95509.22
2023-04-03T03:14:41.636Z,95504.16
2023-04-03T03:15:44.087Z,95505.41
2023-04-03T03:16:45.629Z,95518.16
2023-04-03T03:17:47.506Z,95514.47
2023-04-03T03:18:49.273Z,95507.97
2023-04-03T03:19:53.174Z,95506.59
2023-04-03T03:20:57.416Z,95507.97
2023-04-03T03:22:01.225Z,95505.16
2023-04-03T03:23:02.928Z,95505.75
2023-04-03T03:24:04.904Z,95511.00
2023-04-03T03:25:08.381Z,95510.22
2023-04-03T03:26:11.895Z,95510.41
2023-04-03T03:27:13.638Z,95509.03
2023-04-03T03:28:15.772Z,95515.16
2023-04-03T03:29:17.429Z,95509.47
2023-04-03T03:30:19.714Z,95508.81
2023-04-03T03:31:21.730Z,95509.41
2023-04-03T03:32:23.500Z,95503.72
2023-04-03T03:33:26.169Z,95502.97
2023-04-03T03:34:27.651Z,95499.75
2023-04-03T03:35:29.363Z,95506.75
2023-04-03T03:36:31.569Z,95508.81
2023-04-03T03:37:33.297Z,95501.09
2023-04-03T03:38:35.322Z,95502.53
2023-04-03T03:39:37.452Z,95502.84
2023-04-03T03:40:39.136Z,95504.91
2023-04-03T03:41:41.289Z,95497.19
2023-04-03T03:42:43.114Z,95500.00
2023-04-03T03:43:47.138Z,95501.28
2023-04-03T03:44:50.322Z,95501.06
2023-04-03T03:45:52.692Z,95498.47
2023-04-03T03:46:54.470Z,95503.03
2023-04-03T03:47:56.554Z,95501.63
2023-04-03T03:48:58.547Z,95507.25
2023-04-03T03:50:00.388Z,95506.00
2023-04-03T03:51:02.134Z,95503.97
2023-04-03T03:52:07.160Z,95499.97
2023-04-03T03:53:09.381Z,95505.00
2023-04-03T03:54:11.274Z,95502.59
2023-04-03T03:55:13.582Z,95507.25
2023-04-03T03:56:15.701Z,95510.91
2023-04-03T03:57:17.914Z,95503.84
2023-04-03T03:58:19.506Z,95507.13
2023-04-03T03:59:21.584Z,95504.88
2023-04-03T04:00:25.413Z,95500.81
2023-04-03T04:01:31.540Z,95503.44
2023-04-03T04:02:33.370Z,95503.25
2023-04-03T04:03:35.487Z,95507.91
2023-04-03T04:04:40.611Z,95508.50
2023-04-03T04:05:47.343Z,95513.75
2023-04-03T04:06:49.366Z,95506.16
2023-04-03T04:07:51.765Z,95509.63
2023-04-03T04:08:53.653Z,95505.59
2023-04-03T04:09:57.826Z,95504.03
2023-04-03T04:10:59.842Z,95506.25
2023-04-03T04:12:01.584Z,95504.41
2023-04-03T04:13:04.821Z,95501.78
2023-04-03T04:14:07.159Z,95507.88
2023-04-03T04:15:10.424Z,95508.03
2023-04-03T04:16:12.225Z,95502.97
2023-04-03T04:17:14.960Z,95503.38
2023-04-03T04:18:18.886Z,95500.59
2023-04-03T04:19:22.805Z,95508.47
2023-04-03T04:20:24.724Z,95512.69
2023-04-03T04:21:26.869Z,95517.19
2023-04-03T04:22:29.473Z,95518.78
2023-04-03T04:23:31.187Z,95514.31
2023-04-03T04:24:34.371Z,95522.25
2023-04-03T04:25:37.717Z,95521.66
2023-04-03T04:26:41.380Z,95522.25
2023-04-03T04:27:46.262Z,95524.69
2023-04-03T04:28:49.846Z,95519.69
2023-04-03T04:29:53.177Z,95521.25
2023-04-03T04:31:27.833Z,95522.91
2023-04-03T04:32:29.706Z,95521.47
2023-04-03T04:33:31.717Z,95521.66
2023-04-03T04:34:36.051Z,95523.25
2023-04-03T04:35:38.820Z,95520.63
2023-04-03T04:36:41.254Z,95512.53
2023-04-03T04:37:45.698Z,95520.19
2023-04-03T04:38:47.805Z,95521.59
2023-04-03T04:39:50.222Z,95515.75
2023-04-03T04:40:52.007Z,95520.81
2023-04-03T04:41:53.990Z,95519.22
2023-04-03T04:42:56.171Z,95507.34
2023-04-03T04:43:58.306Z,95516.81
2023-04-03T04:45:01.369Z,95519.88
2023-04-03T04:46:05.989Z,95522.09
2023-04-03T04:47:11.590Z,95517.31
2023-04-03T04:48:13.336Z,95510.88
2023-04-03T04:49:15.145Z,95514.50
2023-04-03T04:50:17.289Z,95522.00
2023-04-03T04:51:19.735Z,95517.50
2023-04-03T04:52:21.455Z,95520.13
2023-04-03T04:53:23.392Z,95523.75
2023-04-03T04:54:27.552Z,95525.78
2023-04-03T04:55:31.973Z,95524.78
2023-04-03T04:56:33.808Z,95531.44
2023-04-03T04:57:36.369Z,95531.63
2023-04-03T04:58:39.270Z,95532.88
2023-04-03T04:59:41.111Z,95531.06
2023-04-03T05:00:43.212Z,95534.88
2023-04-03T05:01:48.308Z,95529.47
2023-04-03T05:02:51.941Z,95535.06
2023-04-03T05:03:54.977Z,95531.25
2023-04-03T05:05:00.408Z,95527.41
2023-04-03T05:06:05.620Z,95535.06
2023-04-03T05:07:08.831Z,95538.28
2023-04-03T05:08:16.323Z,95535.06
2023-04-03T05:09:18.445Z,95541.94
2023-04-03T05:10:21.727Z,95540.31
2023-04-03T05:11:25.248Z,95544.22
2023-04-03T05:12:27.801Z,95541.56
2023-04-03T05:13:36.990Z,95547.59
2023-04-03T05:14:38.672Z,95547.59
2023-04-03T05:15:45.319Z,95552.03
2023-04-03T05:16:51.528Z,95540.72
2023-04-03T05:17:54.561Z,95538.72
2023-04-03T05:18:57.124Z,95547.59
2023-04-03T05:20:02.319Z,95544.38
2023-04-03T05:21:04.367Z,95539.94
2023-04-03T05:22:06.386Z,95542.75
2023-04-03T05:23:07.990Z,95541.38
2023-04-03T05:24:11.242Z,95545.78
2023-04-03T05:25:18.503Z,95541.13
2023-04-03T05:26:22.079Z,95549.19
2023-04-03T05:27:25.483Z,95548.19
2023-04-03T05:28:29.814Z,95548.00
2023-04-03T05:29:31.542Z,95548.22
2023-04-03T05:30:34.846Z,95544.00
2023-04-03T05:31:38.480Z,95548.59
2023-04-03T05:32:44.729Z,95544.13
2023-04-03T05:34:09.041Z,95539.91
2023-04-03T05:35:12.588Z,95547.59
2023-04-03T05:36:15.879Z,95545.75
2023-04-03T05:37:21.359Z,95548.97
2023-04-03T05:38:24.248Z,95545.94
2023-04-03T05:39:27.141Z,95545.56
2023-04-03T05:40:28.693Z,95542.53
2023-04-03T05:41:32.346Z,95544.13
2023-04-03T05:42:34.170Z,95549.56
2023-04-03T05:43:38.728Z,95551.00
2023-04-03T05:44:41.830Z,95548.56
2023-04-03T05:45:45.513Z,95551.19
2023-04-03T05:46:49.145Z,95546.75
2023-04-03T05:47:50.997Z,95546.94
2023-04-03T05:48:52.764Z,95554.44
2023-04-03T05:49:57.199Z,95554.00
2023-04-03T05:50:59.722Z,95549.78
2023-04-03T05:52:02.403Z,95554.81
2023-04-03T05:53:06.187Z,95547.16
2023-04-03T05:54:15.056Z,95545.16
2023-04-03T05:55:17.501Z,95553.41
2023-04-03T05:56:19.802Z,95543.13
2023-04-03T05:57:23.926Z,95545.94
2023-04-03T05:58:28.554Z,95549.34
2023-04-03T05:59:35.212Z,95550.34
2023-04-03T06:00:37.185Z,95552.31
2023-04-03T06:01:39.029Z,95557.38
2023-04-03T06:02:42.728Z,95559.16
2023-04-03T06:03:50.461Z,95553.56
2023-04-03T06:04:56.987Z,95553.13
2023-04-03T06:05:58.797Z,95551.31
2023-04-03T06:07:00.476Z,95550.16
2023-04-03T06:08:02.340Z,95549.91
2023-04-03T06:09:07.657Z,95555.94
2023-04-03T06:10:12.078Z,95552.31
2023-04-03T06:11:13.953Z,95552.53
2023-04-03T06:12:15.778Z,95554.31
2023-04-03T06:13:17.969Z,95559.16
2023-04-03T06:14:19.786Z,95549.88
2023-04-03T06:15:24.586Z,95557.38
2023-04-03T06:16:26.228Z,95558.03
2023-04-03T06:17:28.178Z,95560.47
2023-04-03T06:18:32.556Z,95559.63
2023-04-03T06:19:34.201Z,95564.66
2023-04-03T06:20:36.292Z,95556.41
2023-04-03T06:21:39.765Z,95562.28
2023-04-03T06:22:43.827Z,95567.50
2023-04-03T06:23:46.932Z,95565.72
2023-04-03T06:24:48.746Z,95565.28
2023-04-03T06:25:50.803Z,95557.25
2023-04-03T06:26:54.591Z,95568.50
2023-04-03T06:27:58.816Z,95564.72
2023-04-03T06:29:01.095Z,95563.09
2023-04-03T06:30:03.290Z,95575.19
2023-04-03T06:31:05.004Z,95570.53
2023-04-03T06:32:07.138Z,95569.56
2023-04-03T06:33:09.095Z,95563.47
2023-04-03T06:34:11.859Z,95567.31
2023-04-03T06:35:13.570Z,95563.25
2023-04-03T06:36:15.328Z,95567.13
2023-04-03T06:37:19.899Z,95567.31
2023-04-03T06:38:23.955Z,95565.72
2023-04-03T06:39:25.682Z,95561.66
2023-04-03T06:40:27.666Z,95568.16
2023-04-03T06:41:29.493Z,95574.78
2023-04-03T06:42:31.191Z,95568.94
2023-04-03T06:43:43.981Z,95575.78
2023-04-03T06:44:45.833Z,95576.19
2023-04-03T06:45:48.116Z,95574.59
2023-04-03T06:46:50.041Z,95574.59
2023-04-03T06:47:51.773Z,95574.41
2023-04-03T06:48:53.800Z,95579.47
2023-04-03T06:49:55.870Z,95577.41
2023-04-03T06:50:57.531Z,95570.13
2023-04-03T06:52:01.037Z,95580.66
2023-04-03T06:53:04.624Z,95582.28
2023-04-03T06:54:09.413Z,95578.03
2023-04-03T06:55:11.441Z,95575.59
2023-04-03T06:56:13.105Z,95579.28
2023-04-03T06:57:15.945Z,95580.69
2023-04-03T06:58:19.070Z,95577.44
2023-04-03T06:59:21.672Z,95582.31
2023-04-03T07:00:23.279Z,95583.53
2023-04-03T07:01:28.777Z,95579.91
2023-04-03T07:02:30.764Z,95581.50
2023-04-03T07:03:33.419Z,95575.88
2023-04-03T07:04:37.253Z,95578.50
2023-04-03T07:05:39.100Z,95578.47
2023-04-03T07:06:41.447Z,95580.31
2023-04-03T07:07:43.112Z,95585.56
2023-04-03T07:08:45.107Z,95580.72
2023-04-03T07:09:49.029Z,95578.91
2023-04-03T07:10:51.443Z,95572.84
2023-04-03T07:11:53.120Z,95574.66
2023-04-03T07:12:54.757Z,95571.84
2023-04-03T07:13:58.740Z,95576.69
2023-04-03T07:15:00.560Z,95575.88
2023-04-03T07:16:03.173Z,95580.31
2023-04-03T07:17:04.847Z,95583.53
2023-04-03T07:18:07.138Z,95578.66
2023-04-03T07:19:09.928Z,95572.59
2023-04-03T07:20:12.520Z,95582.47
2023-04-03T07:21:14.328Z,95577.03
2023-04-03T07:22:16.096Z,95577.81
2023-04-03T07:23:17.825Z,95585.31
2023-04-03T07:24:19.572Z,95579.03
2023-04-03T07:25:23.615Z,95588.31
2023-04-03T07:26:26.470Z,95591.09
2023-04-03T07:27:28.222Z,95600.59
2023-04-03T07:28:30.721Z,95594.38
2023-04-03T07:29:34.671Z,95596.78
2023-04-03T07:30:43.264Z,95598.59
2023-04-03T07:31:45.816Z,95595.56
2023-04-03T07:32:47.728Z,95600.81
2023-04-03T07:33:49.444Z,95590.38
2023-04-03T07:34:51.139Z,95595.38
2023-04-03T07:35:52.704Z,95595.19
2023-04-03T07:36:54.653Z,95588.31
2023-04-03T07:37:56.324Z,95604.84
2023-04-03T07:39:00.348Z,95594.19
2023-04-03T07:40:04.490Z,95592.75
2023-04-03T07:41:06.736Z,95599.38
2023-04-03T07:42:09.133Z,95598.16
2023-04-03T07:43:16.762Z,95598.34
2023-04-03T07:44:18.972Z,95607.59
2023-04-03T07:45:20.889Z,95600.66
2023-04-03T07:46:22.659Z,95596.78
2023-04-03T07:47:27.214Z,95594.16
2023-04-03T07:48:29.020Z,95593.31
2023-04-03T07:49:30.992Z,95596.38
2023-04-03T07:50:33.323Z,95594.94
2023-04-03T07:51:37.787Z,95597.06
2023-04-03T07:52:39.489Z,95604.19
2023-04-03T07:53:41.154Z,95592.53
2023-04-03T07:54:43.524Z,95594.34
2023-04-03T07:55:50.016Z,95594.13
2023-04-03T07:56:51.863Z,95598.38
2023-04-03T07:57:53.600Z,95598.22
2023-04-03T07:58:55.480Z,95598.34
2023-04-03T07:59:57.063Z,95595.03
2023-04-03T08:00:58.769Z,95597.84
2023-04-03T08:02:00.730Z,95596.84
2023-04-03T08:03:05.187Z,95598.91
2023-04-03T08:04:07.846Z,95596.06
2023-04-03T08:05:09.797Z,95596.72
2023-04-03T08:06:16.005Z,95598.75
2023-04-03T08:07:18.348Z,95606.81
2023-04-03T08:08:22.371Z,95596.34
2023-04-03T08:09:24.133Z,95602.19
2023-04-03T08:10:25.922Z,95601.22
2023-04-03T08:11:27.838Z,95594.56
2023-04-03T08:12:30.897Z,95603.66
2023-04-03T08:13:33.080Z,95601.41
2023-04-03T08:14:37.680Z,95603.63
2023-04-03T08:15:39.517Z,95604.41
2023-04-03T08:16:41.350Z,95601.56
2023-04-03T08:17:42.962Z,95601.78
2023-04-03T08:18:45.341Z,95601.16
2023-04-03T08:19:47.092Z,95589.47
2023-04-03T08:20:48.611Z,95599.31
2023-04-03T08:21:50.227Z,95595.81
2023-04-03T08:22:52.065Z,95590.53
2023-04-03T08:23:53.798Z,95592.72
2023-04-03T08:24:59.480Z,95596.41
2023-04-03T08:26:07.775Z,95598.81
2023-04-03T08:27:12.422Z,95599.75
2023-04-03T08:28:14.317Z,95601.38
2023-04-03T08:29:16.195Z,95605.44
2023-04-03T08:30:18.339Z,95599.22
2023-04-03T08:31:20.971Z,95594.06
2023-04-03T08:32:23.311Z,95601.63
2023-04-03T08:33:27.426Z,95603.91
2023-04-03T08:34:29.069Z,95595.13
2023-04-03T08:35:31.044Z,95598.13
2023-04-03T08:36:35.031Z,95600.69
2023-04-03T08:37:37.952Z,95602.41
2023-04-03T08:38:39.649Z,95600.25
2023-04-03T08:39:44.200Z,95600.69
2023-04-03T08:40:46.334Z,95592.59
2023-04-03T08:41:48.971Z,95602.81
2023-04-03T08:43:05.189Z,95607.28
2023-04-03T08:44:23.625Z,95599.66
2023-04-03T08:45:51.136Z,95600.53
2023-04-03T08:47:20.701Z,95592.84
2023-04-03T08:48:32.185Z,95601.38
2023-04-03T08:49:38.351Z,95606.25
2023-04-03T08:50:43.102Z,95607.06
2023-04-03T08:51:48.143Z,95608.69
2023-04-03T08:52:56.293Z,95607.03
2023-04-03T08:54:12.017Z,95605.84
2023-04-03T08:55:24.669Z,95614.66
2023-04-03T08:56:30.540Z,95619.50
2023-04-03T08:57:37.257Z,95619.94
2023-04-03T08:58:57.144Z,95628.66
2023-04-03T09:00:06.151Z,95623.59
2023-04-03T09:01:20.943Z,95621.59
2023-04-03T09:02:33.617Z,95621.59
2023-04-03T09:03:39.180Z,95623.59
2023-04-03T09:04:41.058Z,95627.03
2023-04-03T09:05:49.212Z,95634.38
2023-04-03T09:06:55.414Z,95637.22
2023-04-03T09:08:08.727Z,95614.75
2023-04-03T09:09:19.557Z,95625.63
2023-04-03T09:10:32.328Z,95623.75
2023-04-03T09:11:46.576Z,95631.38
2023-04-03T09:13:00.589Z,95627.91
2023-04-03T09:14:08.159Z,95618.38
2023-04-03T09:15:35.344Z,95623.81
2023-04-03T09:17:04.265Z,95625.19
2023-04-03T09:18:08.993Z,95629.66
2023-04-03T09:19:16.772Z,95621.91
2023-04-03T09:20:43.079Z,95628.81
2023-04-03T09:21:44.816Z,95627.97
2023-04-03T09:22:52.425Z,95627.38
2023-04-03T09:24:01.365Z,95630.59
2023-04-03T09:25:11.257Z,95624.75
2023-04-03T09:26:20.747Z,95620.41
2023-04-03T09:27:22.597Z,95624.81
2023-04-03T09:28:27.847Z,95626.03
2023-04-03T09:29:31.252Z,95620.75
2023-04-03T09:30:34.361Z,95634.44
2023-04-03T09:31:43.022Z,95625.19
2023-04-03T09:32:51.574Z,95630.69
2023-04-03T09:33:57.992Z,95625.59
2023-04-03T09:35:19.033Z,95628.81
2023-04-03T09:37:06.892Z,95632.50
2023-04-03T09:38:11.580Z,95631.31
2023-04-03T09:39:29.923Z,95629.53
2023-04-03T09:40:40.701Z,95640.25
2023-04-03T09:41:44.544Z,95631.19
2023-04-03T09:42:51.885Z,95639.69
2023-04-03T09:43:57.352Z,95641.09
2023-04-03T09:45:03.049Z,95640.69
2023-04-03T09:46:22.262Z,95631.38
2023-04-03T09:47:28.974Z,95631.72
2023-04-03T09:48:30.879Z,95636.94
2023-04-03T09:49:32.597Z,95639.56
2023-04-03T09:50:36.232Z,95647.91
2023-04-03T09:51:38.997Z,95647.88
2023-04-03T09:52:45.937Z,95634.53
2023-04-03T09:53:49.938Z,95634.50
2023-04-03T09:54:51.898Z,95644.56
2023-04-03T09:55:53.679Z,95642.97
2023-04-03T09:56:56.743Z,95639.56
2023-04-03T09:58:04.712Z,95638.91
2023-04-03T09:59:16.782Z,95639.09
2023-04-03T10:00:41.350Z,95637.91
2023-04-03T10:01:57.985Z,95639.25
2023-04-03T10:03:00.548Z,95634.81
2023-04-03T10:04:11.987Z,95631.38
2023-04-03T10:05:36.417Z,95633.06
2023-04-03T10:06:49.621Z,95634.69
2023-04-03T10:08:01.639Z,95631.69
2023-04-03T10:09:20.603Z,95632.09
2023-04-03T10:10:26.304Z,95637.47
2023-04-03T10:11:28.214Z,95633.53
2023-04-03T10:12:30.902Z,95635.53
2023-04-03T10:13:36.225Z,95639.78
2023-04-03T10:14:56.511Z,95631.28
2023-04-03T10:16:07.802Z,95636.34
2023-04-03T10:17:37.269Z,95642.41
2023-04-03T10:18:39.666Z,95639.16
2023-04-03T10:19:44.886Z,95638.09
2023-04-03T10:20:51.701Z,95635.28
2023-04-03T10:21:59.222Z,95636.94
2023-04-03T10:23:06.600Z,95646.25
2023-04-03T10:24:49.475Z,95633.97
2023-04-03T10:25:55.190Z,95639.56
2023-04-03T10:27:10.465Z,95640.38
2023-04-03T10:28:45.795Z,95639.47
2023-04-03T10:30:01.494Z,95636.16
2023-04-03T10:31:14.015Z,95625.47
2023-04-03T10:33:14.751Z,95648.28
2023-04-03T10:34:19.227Z,95632.50
2023-04-03T10:35:47.051Z,95634.78
2023-04-03T10:37:39.759Z,95625.13
2023-04-03T10:39:10.912Z,95626.72
2023-04-03T10:40:34.444Z,95629.81
2023-04-03T10:41:44.987Z,95641.91
2023-04-03T10:43:11.148Z,95633.03
2023-04-03T10:44:30.562Z,95627.03
2023-04-03T10:45:54.552Z,95624.25
2023-04-03T10:47:20.434Z,95634.72
2023-04-03T10:48:40.593Z,95618.38
2023-04-03T10:50:37.352Z,95621.84
2023-04-03T10:51:49.055Z,95637.16
2023-04-03T10:53:02.770Z,95633.53
2023-04-03T10:54:18.497Z,95622.63
2023-04-03T10:55:49.336Z,95626.47
2023-04-03T10:56:57.914Z,95630.31
2023-04-03T10:58:04.074Z,95631.94
2023-04-03T10:59:08.529Z,95630.53
2023-04-03T11:00:22.490Z,95631.53
2023-04-03T11:01:32.559Z,95647.44
2023-04-03T11:02:39.921Z,95626.06
2023-04-03T11:03:47.190Z,95636.13
2023-04-03T11:04:54.685Z,95637.75
2023-04-03T11:05:58.485Z,95620.63
2023-04-03T11:07:10.610Z,95628.09
2023-04-03T11:08:18.366Z,95626.69
2023-04-03T11:09:38.887Z,95634.13
2023-04-03T11:10:49.965Z,95630.31
2023-04-03T11:11:57.140Z,95633.13
2023-04-03T11:13:14.260Z,95625.88
2023-04-03T11:14:25.306Z,95621.84
2023-04-03T11:15:30.161Z,95625.47
2023-04-03T11:16:47.200Z,95627.28
2023-04-03T11:18:03.121Z,95623.47
2023-04-03T11:19:24.484Z,95632.28
2023-04-03T11:20:35.086Z,95639.97
2023-04-03T11:21:44.247Z,95625.47
2023-04-03T11:22:59.626Z,95632.28
2023-04-03T11:24:06.263Z,95630.13
2023-04-03T11:25:13.672Z,95625.06
2023-04-03T11:26:19.861Z,95622.66
2023-04-03T11:27:24.699Z,95625.28
2023-04-03T11:28:26.288Z,95627.69
2023-04-03T11:29:37.511Z,95625.06
2023-04-03T11:31:03.463Z,95620.63
2023-04-03T11:32:27.273Z,95622.84
2023-04-03T11:33:45.954Z,95615.38
2023-04-03T11:34:52.427Z,95615.78
2023-04-03T11:35:59.647Z,95612.75
2023-04-03T11:37:06.361Z,95616.19
2023-04-03T11:38:15.172Z,95620.41
2023-04-03T11:39:33.027Z,95614.16
2023-04-03T11:40:37.947Z,95613.34
2023-04-03T11:41:40.003Z,95607.06
2023-04-03T11:42:46.503Z,95614.06
2023-04-03T11:44:29.370Z,95607.81
2023-04-03T11:45:34.080Z,95607.81
2023-04-03T11:46:57.628Z,95609.56
2023-04-03T11:48:21.247Z,95611.59
2023-04-03T11:50:00.989Z,95605.97
2023-04-03T11:51:25.752Z,95601.53
2023-04-03T11:52:41.497Z,95611.88
2023-04-03T11:53:47.949Z,95601.69
2023-04-03T11:54:50.345Z,95606.38
2023-04-03T11:55:56.358Z,95605.13
2023-04-03T11:56:58.066Z,95600.59
2023-04-03T11:57:59.655Z,95592.94
2023-04-03T11:59:13.150Z,95599.00
2023-04-03T12:00:53.672Z,95597.78
2023-04-03T12:01:57.494Z,95594.69
2023-04-03T12:02:59.485Z,95601.81
2023-04-03T12:04:10.810Z,95596.38
2023-04-03T12:05:30.867Z,95593.75
2023-04-03T12:06:36.984Z,95593.50
2023-04-03T12:07:38.884Z,95597.06
2023-04-03T12:08:40.856Z,95592.81
2023-04-03T12:09:43.103Z,95596.03
2023-04-03T12:11:09.599Z,95596.53
2023-04-03T12:12:35.203Z,95585.53
2023-04-03T12:13:57.277Z,95584.97
2023-04-03T12:15:25.317Z,95585.28
2023-04-03T12:16:35.064Z,95589.94
2023-04-03T12:17:37.597Z,95586.13
2023-04-03T12:18:43.633Z,95587.06
2023-04-03T12:19:47.393Z,95583.63
2023-04-03T12:20:51.862Z,95576.69
2023-04-03T12:22:00.443Z,95589.16
2023-04-03T12:23:32.569Z,95588.28
2023-04-03T12:24:36.891Z,95586.94
2023-04-03T12:25:51.230Z,95580.50
2023-04-03T12:27:17.789Z,95580.44
2023-04-03T12:28:21.791Z,95578.13
2023-04-03T12:29:33.281Z,95581.63
2023-04-03T12:30:36.238Z,95582.69
2023-04-03T12:31:47.820Z,95582.59
2023-04-03T12:32:50.610Z,95576.91
2023-04-03T12:34:26.335Z,95573.97
2023-04-03T12:35:44.815Z,95578.59
2023-04-03T12:37:01.736Z,95579.78
2023-04-03T12:38:48.157Z,95580.16
2023-04-03T12:40:10.147Z,95575.84
2023-04-03T12:41:22.402Z,95577.84
2023-04-03T12:42:43.499Z,95574.31
2023-04-03T12:43:51.397Z,95570.09
2023-04-03T12:45:03.444Z,95571.41
2023-04-03T12:46:08.421Z,95573.03
2023-04-03T12:47:39.105Z,95567.63
2023-04-03T12:48:51.403Z,95560.84
2023-04-03T12:49:54.375Z,95561.38
2023-04-03T12:51:00.982Z,95565.94
2023-04-03T12:52:27.586Z,95568.13
2023-04-03T12:53:36.600Z,95565.50
2023-04-03T12:54:42.902Z,95564.97
2023-04-03T12:55:44.764Z,95558.47
2023-04-03T12:56:46.692Z,95568.03